sensor_id;sensor_type;location;lat;lon;timestamp;P1;durP1;ratioP1;P2;durP2;ratioP2
54263;SDS011;40178;53.042;6.406;2023-08-20T00:00:25;8.20;;;3.05;;
54263;SDS011;40178;53.042;6.406;2023-08-20T00:02:51;6.85;;;2.83;;
54263;SDS011;40178;53.042;6.406;2023-08-20T00:05:23;5.18;;;2.53;;
54263;SDS011;40178;53.042;6.406;2023-08-20T00:07:49;7.35;;;3.10;;
54263;SDS011;40178;53.042;6.406;2023-08-20T00:10:15;7.70;;;2.90;;
54263;SDS011;40178;53.042;6.406;2023-08-20T00:12:41;5.88;;;2.60;;
54263;SDS011;40178;53.042;6.406;2023-08-20T00:15:07;5.43;;;2.28;;
54263;SDS011;40178;53.042;6.406;2023-08-20T00:17:34;15.48;;;3.05;;
54263;SDS011;40178;53.042;6.406;2023-08-20T00:20:00;2.88;;;1.30;;
54263;SDS011;40178;53.042;6.406;2023-08-20T00:22:33;4.13;;;1.70;;
54263;SDS011;40178;53.042;6.406;2023-08-20T00:24:58;7.97;;;2.25;;
54263;SDS011;40178;53.042;6.406;2023-08-20T00:27:24;6.35;;;1.52;;
54263;SDS011;40178;53.042;6.406;2023-08-20T00:29:50;3.42;;;1.23;;
54263;SDS011;40178;53.042;6.406;2023-08-20T00:32:15;2.42;;;1.25;;
54263;SDS011;40178;53.042;6.406;2023-08-20T00:34:41;5.03;;;1.40;;
54263;SDS011;40178;53.042;6.406;2023-08-20T00:37:07;3.28;;;1.25;;
54263;SDS011;40178;53.042;6.406;2023-08-20T00:39:33;3.75;;;1.67;;
54263;SDS011;40178;53.042;6.406;2023-08-20T00:41:58;4.18;;;1.80;;
54263;SDS011;40178;53.042;6.406;2023-08-20T00:44:24;3.17;;;1.35;;
54263;SDS011;40178;53.042;6.406;2023-08-20T00:46:50;5.38;;;2.10;;
54263;SDS011;40178;53.042;6.406;2023-08-20T00:49:16;4.47;;;1.63;;
54263;SDS011;40178;53.042;6.406;2023-08-20T00:51:43;6.30;;;1.77;;
54263;SDS011;40178;53.042;6.406;2023-08-20T00:54:09;5.65;;;2.20;;
54263;SDS011;40178;53.042;6.406;2023-08-20T00:56:36;5.88;;;2.13;;
54263;SDS011;40178;53.042;6.406;2023-08-20T00:59:03;5.03;;;1.60;;
54263;SDS011;40178;53.042;6.406;2023-08-20T01:01:30;5.90;;;2.78;;
54263;SDS011;40178;53.042;6.406;2023-08-20T01:03:56;4.18;;;1.50;;
54263;SDS011;40178;53.042;6.406;2023-08-20T01:08:49;4.80;;;2.22;;
54263;SDS011;40178;53.042;6.406;2023-08-20T01:11:30;4.38;;;1.73;;
54263;SDS011;40178;53.042;6.406;2023-08-20T01:14:02;3.63;;;1.50;;
54263;SDS011;40178;53.042;6.406;2023-08-20T01:16:38;2.72;;;1.17;;
54263;SDS011;40178;53.042;6.406;2023-08-20T01:19:04;3.88;;;1.30;;
54263;SDS011;40178;53.042;6.406;2023-08-20T01:21:38;4.05;;;1.45;;
54263;SDS011;40178;53.042;6.406;2023-08-20T01:29:24;7.00;;;2.20;;
54263;SDS011;40178;53.042;6.406;2023-08-20T01:31:52;5.82;;;2.70;;
54263;SDS011;40178;53.042;6.406;2023-08-20T01:34:19;6.10;;;2.58;;
54263;SDS011;40178;53.042;6.406;2023-08-20T01:36:46;7.40;;;2.55;;
54263;SDS011;40178;53.042;6.406;2023-08-20T01:39:11;6.50;;;2.70;;
54263;SDS011;40178;53.042;6.406;2023-08-20T01:41:37;6.75;;;2.80;;
54263;SDS011;40178;53.042;6.406;2023-08-20T01:44:02;8.45;;;3.63;;
54263;SDS011;40178;53.042;6.406;2023-08-20T01:46:28;6.68;;;3.28;;
54263;SDS011;40178;53.042;6.406;2023-08-20T01:48:54;7.20;;;2.60;;
54263;SDS011;40178;53.042;6.406;2023-08-20T01:51:19;6.63;;;2.58;;
54263;SDS011;40178;53.042;6.406;2023-08-20T01:53:45;6.30;;;3.25;;
54263;SDS011;40178;53.042;6.406;2023-08-20T01:56:11;5.88;;;2.42;;
54263;SDS011;40178;53.042;6.406;2023-08-20T01:58:37;6.93;;;3.00;;
54263;SDS011;40178;53.042;6.406;2023-08-20T02:01:03;7.18;;;2.90;;
54263;SDS011;40178;53.042;6.406;2023-08-20T02:03:29;7.68;;;3.97;;
54263;SDS011;40178;53.042;6.406;2023-08-20T02:05:54;7.53;;;3.53;;
54263;SDS011;40178;53.042;6.406;2023-08-20T02:08:20;12.73;;;4.97;;
54263;SDS011;40178;53.042;6.406;2023-08-20T02:10:46;7.18;;;3.92;;
54263;SDS011;40178;53.042;6.406;2023-08-20T02:13:11;9.18;;;4.25;;
54263;SDS011;40178;53.042;6.406;2023-08-20T02:15:37;10.02;;;5.28;;
54263;SDS011;40178;53.042;6.406;2023-08-20T02:18:02;12.75;;;5.90;;
54263;SDS011;40178;53.042;6.406;2023-08-20T02:20:28;10.30;;;5.40;;
54263;SDS011;40178;53.042;6.406;2023-08-20T02:22:54;10.10;;;5.70;;
54263;SDS011;40178;53.042;6.406;2023-08-20T02:25:20;8.98;;;4.72;;
54263;SDS011;40178;53.042;6.406;2023-08-20T02:27:46;11.32;;;5.80;;
54263;SDS011;40178;53.042;6.406;2023-08-20T02:30:11;11.70;;;6.07;;
54263;SDS011;40178;53.042;6.406;2023-08-20T02:32:38;12.52;;;6.53;;
54263;SDS011;40178;53.042;6.406;2023-08-20T02:35:04;15.20;;;7.28;;
54263;SDS011;40178;53.042;6.406;2023-08-20T02:37:31;9.65;;;6.00;;
54263;SDS011;40178;53.042;6.406;2023-08-20T02:39:57;14.45;;;7.47;;
54263;SDS011;40178;53.042;6.406;2023-08-20T02:42:22;15.48;;;7.82;;
54263;SDS011;40178;53.042;6.406;2023-08-20T02:44:48;10.32;;;6.53;;
54263;SDS011;40178;53.042;6.406;2023-08-20T02:47:14;11.55;;;6.53;;
54263;SDS011;40178;53.042;6.406;2023-08-20T02:49:39;10.10;;;6.28;;
54263;SDS011;40178;53.042;6.406;2023-08-20T02:52:05;9.98;;;6.47;;
54263;SDS011;40178;53.042;6.406;2023-08-20T02:54:30;11.38;;;6.53;;
54263;SDS011;40178;53.042;6.406;2023-08-20T02:56:57;12.25;;;6.68;;
54263;SDS011;40178;53.042;6.406;2023-08-20T02:59:23;11.45;;;6.90;;
54263;SDS011;40178;53.042;6.406;2023-08-20T03:01:49;11.77;;;6.20;;
54263;SDS011;40178;53.042;6.406;2023-08-20T03:04:15;11.88;;;6.95;;
54263;SDS011;40178;53.042;6.406;2023-08-20T03:06:40;13.02;;;7.25;;
54263;SDS011;40178;53.042;6.406;2023-08-20T03:09:06;13.80;;;6.80;;
54263;SDS011;40178;53.042;6.406;2023-08-20T03:11:31;15.98;;;6.80;;
54263;SDS011;40178;53.042;6.406;2023-08-20T03:13:57;14.43;;;6.45;;
54263;SDS011;40178;53.042;6.406;2023-08-20T03:16:23;10.10;;;6.07;;
54263;SDS011;40178;53.042;6.406;2023-08-20T03:18:48;8.75;;;5.97;;
54263;SDS011;40178;53.042;6.406;2023-08-20T03:21:14;10.85;;;6.25;;
54263;SDS011;40178;53.042;6.406;2023-08-20T03:23:39;11.25;;;6.88;;
54263;SDS011;40178;53.042;6.406;2023-08-20T03:26:05;8.98;;;6.00;;
54263;SDS011;40178;53.042;6.406;2023-08-20T03:28:30;8.60;;;5.07;;
54263;SDS011;40178;53.042;6.406;2023-08-20T03:30:59;8.27;;;4.72;;
54263;SDS011;40178;53.042;6.406;2023-08-20T03:33:26;9.65;;;4.43;;
54263;SDS011;40178;53.042;6.406;2023-08-20T03:35:51;7.05;;;4.20;;
54263;SDS011;40178;53.042;6.406;2023-08-20T03:38:17;6.22;;;3.38;;
54263;SDS011;40178;53.042;6.406;2023-08-20T03:40:42;9.18;;;4.35;;
54263;SDS011;40178;53.042;6.406;2023-08-20T03:43:10;7.47;;;3.90;;
54263;SDS011;40178;53.042;6.406;2023-08-20T03:45:35;11.02;;;4.05;;
54263;SDS011;40178;53.042;6.406;2023-08-20T03:48:01;7.45;;;4.15;;
54263;SDS011;40178;53.042;6.406;2023-08-20T03:50:27;9.52;;;3.92;;
54263;SDS011;40178;53.042;6.406;2023-08-20T03:52:52;9.90;;;4.80;;
54263;SDS011;40178;53.042;6.406;2023-08-20T03:55:18;10.70;;;5.25;;
54263;SDS011;40178;53.042;6.406;2023-08-20T03:57:44;8.00;;;4.75;;
54263;SDS011;40178;53.042;6.406;2023-08-20T04:00:10;10.38;;;5.28;;
54263;SDS011;40178;53.042;6.406;2023-08-20T04:02:37;8.63;;;4.90;;
54263;SDS011;40178;53.042;6.406;2023-08-20T04:05:03;9.02;;;4.50;;
54263;SDS011;40178;53.042;6.406;2023-08-20T04:07:29;10.40;;;4.97;;
54263;SDS011;40178;53.042;6.406;2023-08-20T04:09:55;9.43;;;4.80;;
54263;SDS011;40178;53.042;6.406;2023-08-20T04:12:21;10.18;;;5.28;;
54263;SDS011;40178;53.042;6.406;2023-08-20T04:14:46;9.23;;;5.07;;
54263;SDS011;40178;53.042;6.406;2023-08-20T04:17:12;10.57;;;5.25;;
54263;SDS011;40178;53.042;6.406;2023-08-20T04:19:37;8.25;;;4.63;;
54263;SDS011;40178;53.042;6.406;2023-08-20T04:22:03;10.57;;;4.88;;
54263;SDS011;40178;53.042;6.406;2023-08-20T04:24:29;9.10;;;4.45;;
54263;SDS011;40178;53.042;6.406;2023-08-20T04:26:54;8.35;;;4.43;;
54263;SDS011;40178;53.042;6.406;2023-08-20T04:29:20;11.25;;;5.10;;
54263;SDS011;40178;53.042;6.406;2023-08-20T04:31:45;11.02;;;4.68;;
54263;SDS011;40178;53.042;6.406;2023-08-20T04:34:11;8.23;;;4.72;;
54263;SDS011;40178;53.042;6.406;2023-08-20T04:36:36;9.77;;;4.63;;
54263;SDS011;40178;53.042;6.406;2023-08-20T04:39:02;11.23;;;5.18;;
54263;SDS011;40178;53.042;6.406;2023-08-20T04:41:29;7.38;;;4.53;;
54263;SDS011;40178;53.042;6.406;2023-08-20T04:43:55;8.70;;;4.50;;
54263;SDS011;40178;53.042;6.406;2023-08-20T04:46:20;8.85;;;5.00;;
54263;SDS011;40178;53.042;6.406;2023-08-20T04:48:46;8.05;;;4.75;;
54263;SDS011;40178;53.042;6.406;2023-08-20T04:51:11;8.25;;;4.53;;
54263;SDS011;40178;53.042;6.406;2023-08-20T04:53:37;10.80;;;4.80;;
54263;SDS011;40178;53.042;6.406;2023-08-20T04:56:03;9.20;;;4.57;;
54263;SDS011;40178;53.042;6.406;2023-08-20T04:58:28;6.93;;;4.30;;
54263;SDS011;40178;53.042;6.406;2023-08-20T05:00:54;7.03;;;3.83;;
54263;SDS011;40178;53.042;6.406;2023-08-20T05:03:19;8.43;;;3.80;;
54263;SDS011;40178;53.042;6.406;2023-08-20T05:05:49;7.13;;;4.00;;
54263;SDS011;40178;53.042;6.406;2023-08-20T05:08:15;9.82;;;3.83;;
54263;SDS011;40178;53.042;6.406;2023-08-20T05:10:41;10.68;;;4.32;;
54263;SDS011;40178;53.042;6.406;2023-08-20T05:13:07;7.82;;;4.10;;
54263;SDS011;40178;53.042;6.406;2023-08-20T05:15:33;9.98;;;4.22;;
54263;SDS011;40178;53.042;6.406;2023-08-20T05:17:59;9.23;;;4.60;;
54263;SDS011;40178;53.042;6.406;2023-08-20T05:20:24;9.63;;;4.90;;
54263;SDS011;40178;53.042;6.406;2023-08-20T05:22:50;12.13;;;5.13;;
54263;SDS011;40178;53.042;6.406;2023-08-20T05:25:16;11.02;;;4.88;;
54263;SDS011;40178;53.042;6.406;2023-08-20T05:27:41;7.97;;;4.22;;
54263;SDS011;40178;53.042;6.406;2023-08-20T05:30:07;8.25;;;5.00;;
54263;SDS011;40178;53.042;6.406;2023-08-20T05:32:33;9.90;;;5.18;;
54263;SDS011;40178;53.042;6.406;2023-08-20T05:34:59;11.15;;;6.10;;
54263;SDS011;40178;53.042;6.406;2023-08-20T05:37:25;12.93;;;6.47;;
54263;SDS011;40178;53.042;6.406;2023-08-20T05:39:50;10.48;;;6.15;;
54263;SDS011;40178;53.042;6.406;2023-08-20T05:42:16;14.07;;;6.65;;
54263;SDS011;40178;53.042;6.406;2023-08-20T05:44:42;12.10;;;6.40;;
54263;SDS011;40178;53.042;6.406;2023-08-20T05:47:08;15.07;;;6.43;;
54263;SDS011;40178;53.042;6.406;2023-08-20T05:49:33;12.40;;;6.72;;
54263;SDS011;40178;53.042;6.406;2023-08-20T05:51:59;13.13;;;6.68;;
54263;SDS011;40178;53.042;6.406;2023-08-20T05:54:25;12.27;;;6.90;;
54263;SDS011;40178;53.042;6.406;2023-08-20T05:56:50;13.05;;;7.30;;
54263;SDS011;40178;53.042;6.406;2023-08-20T05:59:16;17.58;;;7.68;;
54263;SDS011;40178;53.042;6.406;2023-08-20T06:01:41;12.45;;;6.30;;
54263;SDS011;40178;53.042;6.406;2023-08-20T06:04:08;13.63;;;6.50;;
54263;SDS011;40178;53.042;6.406;2023-08-20T06:06:34;11.25;;;6.70;;
54263;SDS011;40178;53.042;6.406;2023-08-20T06:09:00;12.55;;;6.68;;
54263;SDS011;40178;53.042;6.406;2023-08-20T06:11:26;14.73;;;7.03;;
54263;SDS011;40178;53.042;6.406;2023-08-20T06:13:51;12.80;;;7.60;;
54263;SDS011;40178;53.042;6.406;2023-08-20T06:16:17;15.50;;;6.80;;
54263;SDS011;40178;53.042;6.406;2023-08-20T06:18:42;12.93;;;6.32;;
54263;SDS011;40178;53.042;6.406;2023-08-20T06:21:08;11.10;;;6.72;;
54263;SDS011;40178;53.042;6.406;2023-08-20T06:23:34;14.23;;;6.55;;
54263;SDS011;40178;53.042;6.406;2023-08-20T06:25:59;12.07;;;5.95;;
54263;SDS011;40178;53.042;6.406;2023-08-20T06:28:25;12.05;;;6.47;;
54263;SDS011;40178;53.042;6.406;2023-08-20T06:30:50;12.23;;;6.35;;
54263;SDS011;40178;53.042;6.406;2023-08-20T06:33:16;13.38;;;6.40;;
54263;SDS011;40178;53.042;6.406;2023-08-20T06:35:42;12.43;;;5.70;;
54263;SDS011;40178;53.042;6.406;2023-08-20T06:38:07;13.07;;;5.97;;
54263;SDS011;40178;53.042;6.406;2023-08-20T06:40:33;11.00;;;5.88;;
54263;SDS011;40178;53.042;6.406;2023-08-20T06:42:59;11.63;;;5.75;;
54263;SDS011;40178;53.042;6.406;2023-08-20T06:45:24;10.32;;;5.13;;
54263;SDS011;40178;53.042;6.406;2023-08-20T06:47:50;11.60;;;5.57;;
54263;SDS011;40178;53.042;6.406;2023-08-20T06:50:15;12.13;;;5.78;;
54263;SDS011;40178;53.042;6.406;2023-08-20T06:52:42;12.20;;;5.72;;
54263;SDS011;40178;53.042;6.406;2023-08-20T06:55:07;12.15;;;5.30;;
54263;SDS011;40178;53.042;6.406;2023-08-20T06:57:33;12.30;;;5.10;;
54263;SDS011;40178;53.042;6.406;2023-08-20T06:59:59;10.77;;;5.85;;
54263;SDS011;40178;53.042;6.406;2023-08-20T07:02:24;12.35;;;5.25;;
54263;SDS011;40178;53.042;6.406;2023-08-20T07:04:50;11.85;;;5.10;;
54263;SDS011;40178;53.042;6.406;2023-08-20T07:07:18;9.10;;;4.72;;
54263;SDS011;40178;53.042;6.406;2023-08-20T07:09:43;12.05;;;5.40;;
54263;SDS011;40178;53.042;6.406;2023-08-20T07:12:09;12.65;;;5.50;;
54263;SDS011;40178;53.042;6.406;2023-08-20T07:14:35;12.02;;;4.95;;
54263;SDS011;40178;53.042;6.406;2023-08-20T07:17:00;12.10;;;4.60;;
54263;SDS011;40178;53.042;6.406;2023-08-20T07:19:27;11.77;;;4.97;;
54263;SDS011;40178;53.042;6.406;2023-08-20T07:21:53;10.48;;;4.40;;
54263;SDS011;40178;53.042;6.406;2023-08-20T07:24:19;11.48;;;4.60;;
54263;SDS011;40178;53.042;6.406;2023-08-20T07:26:50;11.13;;;4.72;;
54263;SDS011;40178;53.042;6.406;2023-08-20T07:29:16;7.78;;;4.35;;
54263;SDS011;40178;53.042;6.406;2023-08-20T07:31:42;7.90;;;4.22;;
54263;SDS011;40178;53.042;6.406;2023-08-20T07:34:07;8.95;;;4.18;;
54263;SDS011;40178;53.042;6.406;2023-08-20T07:36:33;8.93;;;4.32;;
54263;SDS011;40178;53.042;6.406;2023-08-20T07:38:59;12.65;;;4.68;;
54263;SDS011;40178;53.042;6.406;2023-08-20T07:41:25;8.40;;;4.40;;
54263;SDS011;40178;53.042;6.406;2023-08-20T07:43:50;8.93;;;3.95;;
54263;SDS011;40178;53.042;6.406;2023-08-20T07:46:16;12.50;;;4.40;;
54263;SDS011;40178;53.042;6.406;2023-08-20T07:48:42;7.20;;;3.25;;
54263;SDS011;40178;53.042;6.406;2023-08-20T07:51:08;9.48;;;3.60;;
54263;SDS011;40178;53.042;6.406;2023-08-20T07:53:34;12.50;;;3.67;;
54263;SDS011;40178;53.042;6.406;2023-08-20T07:56:00;8.18;;;3.97;;
54263;SDS011;40178;53.042;6.406;2023-08-20T07:58:26;6.97;;;2.92;;
54263;SDS011;40178;53.042;6.406;2023-08-20T08:00:53;9.45;;;2.90;;
54263;SDS011;40178;53.042;6.406;2023-08-20T08:03:19;8.80;;;3.10;;
54263;SDS011;40178;53.042;6.406;2023-08-20T08:05:48;8.20;;;3.58;;
54263;SDS011;40178;53.042;6.406;2023-08-20T08:08:17;7.90;;;3.35;;
54263;SDS011;40178;53.042;6.406;2023-08-20T08:10:44;10.38;;;3.30;;
54263;SDS011;40178;53.042;6.406;2023-08-20T08:13:11;8.80;;;2.78;;
54263;SDS011;40178;53.042;6.406;2023-08-20T08:15:37;7.97;;;2.60;;
54263;SDS011;40178;53.042;6.406;2023-08-20T08:18:02;10.60;;;3.03;;
54263;SDS011;40178;53.042;6.406;2023-08-20T08:20:28;9.68;;;2.70;;
54263;SDS011;40178;53.042;6.406;2023-08-20T08:22:54;10.57;;;2.55;;
54263;SDS011;40178;53.042;6.406;2023-08-20T08:25:19;8.57;;;2.05;;
54263;SDS011;40178;53.042;6.406;2023-08-20T08:27:45;7.25;;;2.50;;
54263;SDS011;40178;53.042;6.406;2023-08-20T08:30:11;9.05;;;3.00;;
54263;SDS011;40178;53.042;6.406;2023-08-20T08:32:37;9.05;;;1.98;;
54263;SDS011;40178;53.042;6.406;2023-08-20T08:35:02;7.47;;;2.08;;
54263;SDS011;40178;53.042;6.406;2023-08-20T08:37:28;5.97;;;1.88;;
54263;SDS011;40178;53.042;6.406;2023-08-20T08:39:53;4.97;;;2.13;;
54263;SDS011;40178;53.042;6.406;2023-08-20T08:42:19;9.50;;;2.60;;
54263;SDS011;40178;53.042;6.406;2023-08-20T08:44:49;7.38;;;2.58;;
54263;SDS011;40178;53.042;6.406;2023-08-20T08:47:15;8.07;;;2.15;;
54263;SDS011;40178;53.042;6.406;2023-08-20T08:49:41;6.68;;;1.70;;
54263;SDS011;40178;53.042;6.406;2023-08-20T08:52:08;5.80;;;2.05;;
54263;SDS011;40178;53.042;6.406;2023-08-20T08:54:36;5.47;;;1.30;;
54263;SDS011;40178;53.042;6.406;2023-08-20T08:57:02;7.63;;;1.88;;
54263;SDS011;40178;53.042;6.406;2023-08-20T08:59:27;8.05;;;2.22;;
54263;SDS011;40178;53.042;6.406;2023-08-20T09:01:53;8.70;;;1.38;;
54263;SDS011;40178;53.042;6.406;2023-08-20T09:04:21;8.57;;;1.77;;
54263;SDS011;40178;53.042;6.406;2023-08-20T09:06:51;5.88;;;1.30;;
54263;SDS011;40178;53.042;6.406;2023-08-20T09:09:20;5.30;;;1.40;;
54263;SDS011;40178;53.042;6.406;2023-08-20T09:11:47;5.72;;;1.00;;
54263;SDS011;40178;53.042;6.406;2023-08-20T09:14:23;6.65;;;2.28;;
54263;SDS011;40178;53.042;6.406;2023-08-20T09:16:58;4.50;;;1.77;;
54263;SDS011;40178;53.042;6.406;2023-08-20T09:19:30;7.35;;;2.53;;
54263;SDS011;40178;53.042;6.406;2023-08-20T09:22:00;9.88;;;1.60;;
54263;SDS011;40178;53.042;6.406;2023-08-20T09:24:26;7.32;;;1.90;;
54263;SDS011;40178;53.042;6.406;2023-08-20T09:27:03;6.28;;;1.92;;
54263;SDS011;40178;53.042;6.406;2023-08-20T09:29:35;9.55;;;2.42;;
54263;SDS011;40178;53.042;6.406;2023-08-20T09:32:14;8.25;;;1.92;;
54263;SDS011;40178;53.042;6.406;2023-08-20T09:34:41;9.95;;;2.85;;
54263;SDS011;40178;53.042;6.406;2023-08-20T09:37:13;7.07;;;1.90;;
54263;SDS011;40178;53.042;6.406;2023-08-20T09:39:39;9.48;;;1.83;;
54263;SDS011;40178;53.042;6.406;2023-08-20T09:42:06;11.50;;;3.38;;
54263;SDS011;40178;53.042;6.406;2023-08-20T09:44:34;6.50;;;2.30;;
54263;SDS011;40178;53.042;6.406;2023-08-20T09:47:08;6.50;;;2.58;;
54263;SDS011;40178;53.042;6.406;2023-08-20T09:49:38;7.25;;;1.67;;
54263;SDS011;40178;53.042;6.406;2023-08-20T09:52:10;10.93;;;2.30;;
54263;SDS011;40178;53.042;6.406;2023-08-20T09:54:45;10.23;;;2.65;;
54263;SDS011;40178;53.042;6.406;2023-08-20T09:57:32;7.07;;;1.90;;
54263;SDS011;40178;53.042;6.406;2023-08-20T10:00:03;6.32;;;2.35;;
54263;SDS011;40178;53.042;6.406;2023-08-20T10:02:34;10.00;;;2.90;;
54263;SDS011;40178;53.042;6.406;2023-08-20T10:05:01;5.63;;;2.38;;
54263;SDS011;40178;53.042;6.406;2023-08-20T10:07:29;4.57;;;1.90;;
54263;SDS011;40178;53.042;6.406;2023-08-20T10:10:01;6.30;;;2.13;;
54263;SDS011;40178;53.042;6.406;2023-08-20T10:12:29;8.23;;;2.03;;
54263;SDS011;40178;53.042;6.406;2023-08-20T10:14:56;6.90;;;1.30;;
54263;SDS011;40178;53.042;6.406;2023-08-20T10:17:25;4.70;;;1.55;;
54263;SDS011;40178;53.042;6.406;2023-08-20T10:19:54;4.35;;;1.23;;
54263;SDS011;40178;53.042;6.406;2023-08-20T10:22:25;5.38;;;1.45;;
54263;SDS011;40178;53.042;6.406;2023-08-20T10:25:01;4.78;;;1.52;;
54263;SDS011;40178;53.042;6.406;2023-08-20T10:27:34;6.82;;;1.77;;
54263;SDS011;40178;53.042;6.406;2023-08-20T10:30:01;3.50;;;1.10;;
54263;SDS011;40178;53.042;6.406;2023-08-20T10:35:18;4.28;;;1.02;;
54263;SDS011;40178;53.042;6.406;2023-08-20T10:38:01;4.85;;;1.20;;
54263;SDS011;40178;53.042;6.406;2023-08-20T10:40:55;5.75;;;1.30;;
54263;SDS011;40178;53.042;6.406;2023-08-20T10:46:38;3.45;;;1.05;;
54263;SDS011;40178;53.042;6.406;2023-08-20T10:48:51;6.53;;;2.08;;
54263;SDS011;40178;53.042;6.406;2023-08-20T10:51:18;4.10;;;0.80;;
54263;SDS011;40178;53.042;6.406;2023-08-20T10:59:08;4.25;;;1.10;;
54263;SDS011;40178;53.042;6.406;2023-08-20T11:01:47;5.22;;;0.70;;
54263;SDS011;40178;53.042;6.406;2023-08-20T11:04:21;4.78;;;1.00;;
54263;SDS011;40178;53.042;6.406;2023-08-20T11:06:55;2.80;;;0.68;;
54263;SDS011;40178;53.042;6.406;2023-08-20T11:09:22;2.80;;;0.90;;
54263;SDS011;40178;53.042;6.406;2023-08-20T11:11:50;4.82;;;1.08;;
54263;SDS011;40178;53.042;6.406;2023-08-20T11:14:17;3.33;;;0.80;;
54263;SDS011;40178;53.042;6.406;2023-08-20T11:16:45;2.97;;;0.68;;
54263;SDS011;40178;53.042;6.406;2023-08-20T11:19:11;3.08;;;0.75;;
54263;SDS011;40178;53.042;6.406;2023-08-20T11:21:38;5.57;;;1.30;;
54263;SDS011;40178;53.042;6.406;2023-08-20T11:24:05;4.90;;;1.15;;
54263;SDS011;40178;53.042;6.406;2023-08-20T11:26:32;5.72;;;1.25;;
54263;SDS011;40178;53.042;6.406;2023-08-20T11:28:59;5.90;;;0.90;;
54263;SDS011;40178;53.042;6.406;2023-08-20T11:31:25;2.75;;;1.00;;
54263;SDS011;40178;53.042;6.406;2023-08-20T11:33:51;8.50;;;1.10;;
54263;SDS011;40178;53.042;6.406;2023-08-20T11:36:17;3.95;;;0.90;;
54263;SDS011;40178;53.042;6.406;2023-08-20T11:38:51;5.10;;;1.52;;
54263;SDS011;40178;53.042;6.406;2023-08-20T11:41:23;4.93;;;0.80;;
54263;SDS011;40178;53.042;6.406;2023-08-20T11:43:51;3.10;;;1.08;;
54263;SDS011;40178;53.042;6.406;2023-08-20T11:46:18;5.82;;;1.20;;
54263;SDS011;40178;53.042;6.406;2023-08-20T11:51:51;4.22;;;1.60;;
54263;SDS011;40178;53.042;6.406;2023-08-20T11:54:17;6.50;;;1.00;;
54263;SDS011;40178;53.042;6.406;2023-08-20T11:56:50;6.60;;;1.33;;
54263;SDS011;40178;53.042;6.406;2023-08-20T11:59:17;8.90;;;1.73;;
54263;SDS011;40178;53.042;6.406;2023-08-20T12:01:51;5.78;;;1.00;;
54263;SDS011;40178;53.042;6.406;2023-08-20T12:04:17;3.30;;;0.95;;
54263;SDS011;40178;53.042;6.406;2023-08-20T12:06:43;5.43;;;1.10;;
54263;SDS011;40178;53.042;6.406;2023-08-20T12:09:21;7.35;;;1.13;;
54263;SDS011;40178;53.042;6.406;2023-08-20T12:11:48;5.45;;;1.00;;
54263;SDS011;40178;53.042;6.406;2023-08-20T12:14:18;3.17;;;0.90;;
54263;SDS011;40178;53.042;6.406;2023-08-20T12:16:44;5.43;;;1.27;;
54263;SDS011;40178;53.042;6.406;2023-08-20T12:19:10;4.05;;;1.00;;
54263;SDS011;40178;53.042;6.406;2023-08-20T12:21:36;5.28;;;1.45;;
54263;SDS011;40178;53.042;6.406;2023-08-20T12:24:02;4.10;;;1.08;;
54263;SDS011;40178;53.042;6.406;2023-08-20T12:26:29;5.63;;;1.98;;
54263;SDS011;40178;53.042;6.406;2023-08-20T12:28:55;5.50;;;1.20;;
54263;SDS011;40178;53.042;6.406;2023-08-20T12:31:20;7.20;;;1.67;;
54263;SDS011;40178;53.042;6.406;2023-08-20T12:33:46;4.07;;;1.40;;
54263;SDS011;40178;53.042;6.406;2023-08-20T12:36:11;7.75;;;1.30;;
54263;SDS011;40178;53.042;6.406;2023-08-20T12:38:37;3.97;;;1.10;;
54263;SDS011;40178;53.042;6.406;2023-08-20T12:41:02;3.85;;;1.30;;
54263;SDS011;40178;53.042;6.406;2023-08-20T12:43:30;6.32;;;0.95;;
54263;SDS011;40178;53.042;6.406;2023-08-20T12:45:56;6.28;;;0.90;;
54263;SDS011;40178;53.042;6.406;2023-08-20T12:48:21;5.30;;;1.77;;
54263;SDS011;40178;53.042;6.406;2023-08-20T12:50:47;5.80;;;1.20;;
54263;SDS011;40178;53.042;6.406;2023-08-20T12:53:13;4.38;;;1.00;;
54263;SDS011;40178;53.042;6.406;2023-08-20T12:55:38;3.15;;;1.10;;
54263;SDS011;40178;53.042;6.406;2023-08-20T12:58:04;4.57;;;1.08;;
54263;SDS011;40178;53.042;6.406;2023-08-20T13:00:30;6.65;;;1.05;;
54263;SDS011;40178;53.042;6.406;2023-08-20T13:02:56;4.38;;;1.23;;
54263;SDS011;40178;53.042;6.406;2023-08-20T13:05:22;5.93;;;1.17;;
54263;SDS011;40178;53.042;6.406;2023-08-20T13:07:49;3.53;;;0.90;;
54263;SDS011;40178;53.042;6.406;2023-08-20T13:10:15;4.20;;;0.90;;
54263;SDS011;40178;53.042;6.406;2023-08-20T13:12:41;5.90;;;0.98;;
54263;SDS011;40178;53.042;6.406;2023-08-20T13:15:13;8.27;;;0.98;;
54263;SDS011;40178;53.042;6.406;2023-08-20T13:17:41;5.45;;;1.00;;
54263;SDS011;40178;53.042;6.406;2023-08-20T13:20:07;4.10;;;1.33;;
54263;SDS011;40178;53.042;6.406;2023-08-20T13:22:33;6.53;;;1.15;;
54263;SDS011;40178;53.042;6.406;2023-08-20T13:24:59;5.05;;;1.50;;
54263;SDS011;40178;53.042;6.406;2023-08-20T13:27:25;6.22;;;1.25;;
54263;SDS011;40178;53.042;6.406;2023-08-20T13:29:50;5.13;;;1.00;;
54263;SDS011;40178;53.042;6.406;2023-08-20T13:32:16;4.85;;;1.08;;
54263;SDS011;40178;53.042;6.406;2023-08-20T13:34:42;4.15;;;0.98;;
54263;SDS011;40178;53.042;6.406;2023-08-20T13:37:07;3.80;;;1.10;;
54263;SDS011;40178;53.042;6.406;2023-08-20T13:39:33;5.35;;;1.33;;
54263;SDS011;40178;53.042;6.406;2023-08-20T13:41:58;4.40;;;1.25;;
54263;SDS011;40178;53.042;6.406;2023-08-20T13:44:24;3.42;;;1.00;;
54263;SDS011;40178;53.042;6.406;2023-08-20T13:46:50;3.67;;;1.00;;
54263;SDS011;40178;53.042;6.406;2023-08-20T13:49:15;4.65;;;1.17;;
54263;SDS011;40178;53.042;6.406;2023-08-20T13:51:41;3.25;;;1.10;;
54263;SDS011;40178;53.042;6.406;2023-08-20T13:54:06;4.30;;;1.10;;
54263;SDS011;40178;53.042;6.406;2023-08-20T13:56:32;4.10;;;1.08;;
54263;SDS011;40178;53.042;6.406;2023-08-20T13:58:58;3.67;;;0.98;;
54263;SDS011;40178;53.042;6.406;2023-08-20T14:01:23;4.47;;;0.82;;
54263;SDS011;40178;53.042;6.406;2023-08-20T14:03:49;2.30;;;0.80;;
54263;SDS011;40178;53.042;6.406;2023-08-20T14:06:15;4.05;;;0.95;;
54263;SDS011;40178;53.042;6.406;2023-08-20T14:08:41;2.75;;;1.20;;
54263;SDS011;40178;53.042;6.406;2023-08-20T14:11:07;4.25;;;1.13;;
54263;SDS011;40178;53.042;6.406;2023-08-20T14:13:33;6.22;;;1.20;;
54263;SDS011;40178;53.042;6.406;2023-08-20T14:15:58;6.35;;;1.25;;
54263;SDS011;40178;53.042;6.406;2023-08-20T14:18:26;4.82;;;1.65;;
54263;SDS011;40178;53.042;6.406;2023-08-20T14:20:51;3.63;;;1.00;;
54263;SDS011;40178;53.042;6.406;2023-08-20T14:23:17;3.25;;;0.95;;
54263;SDS011;40178;53.042;6.406;2023-08-20T14:25:42;3.83;;;0.70;;
54263;SDS011;40178;53.042;6.406;2023-08-20T14:28:08;1.60;;;0.55;;
54263;SDS011;40178;53.042;6.406;2023-08-20T14:30:37;3.13;;;0.70;;
54263;SDS011;40178;53.042;6.406;2023-08-20T14:33:04;4.32;;;1.02;;
54263;SDS011;40178;53.042;6.406;2023-08-20T14:35:30;2.05;;;0.57;;
54263;SDS011;40178;53.042;6.406;2023-08-20T14:37:57;2.35;;;0.63;;
54263;SDS011;40178;53.042;6.406;2023-08-20T14:40:22;4.28;;;1.20;;
54263;SDS011;40178;53.042;6.406;2023-08-20T14:42:48;2.42;;;0.75;;
54263;SDS011;40178;53.042;6.406;2023-08-20T14:45:15;1.88;;;0.60;;
54263;SDS011;40178;53.042;6.406;2023-08-20T14:47:40;3.67;;;0.75;;
54263;SDS011;40178;53.042;6.406;2023-08-20T14:50:06;2.47;;;0.68;;
54263;SDS011;40178;53.042;6.406;2023-08-20T14:52:32;3.22;;;0.60;;
54263;SDS011;40178;53.042;6.406;2023-08-20T14:54:59;3.20;;;0.73;;
54263;SDS011;40178;53.042;6.406;2023-08-20T14:57:24;1.98;;;0.75;;
54263;SDS011;40178;53.042;6.406;2023-08-20T14:59:50;2.55;;;0.70;;
54263;SDS011;40178;53.042;6.406;2023-08-20T15:02:16;3.38;;;0.70;;